Time;durP1;ratioP1;P1;durP2;ratioP2;P2;SDS_P1;SDS_P2;PMS_P1;PMS_P2;Temp;Humidity;BMP_temperature;BMP_pressure;BME280_temperature;BME280_humidity;BME280_pressure;Samples;Min_cycle;Max_cycle;Signal;HPM_P1;HPM_P2
2022/06/14 00:00:54;;;;;;;5.43;2.55;;;10.40;99.90;;;;;;5038185;28;20055;-69
2022/06/14 00:03:30;;;;;;;9.90;2.95;;;10.20;99.90;;;;;;5038513;28;20395;-68
2022/06/14 00:05:58;;;;;;;8.75;2.95;;;10.20;99.90;;;;;;5037636;28;20036;-68
2022/06/14 00:08:25;;;;;;;11.75;3.22;;;10.20;99.90;;;;;;5054120;28;20033;-68
2022/06/14 00:10:53;;;;;;;9.07;2.90;;;10.20;99.90;;;;;;5036542;28;20068;-68
2022/06/14 00:13:19;;;;;;;8.50;3.13;;;;;;;;;;5055356;28;20541;-69
2022/06/14 00:15:45;;;;;;;4.15;2.10;;;;;;;;;;5055469;28;20090;-69
2022/06/14 00:18:15;;;;;;;7.35;3.00;;;10.20;99.90;;;;;;5038238;28;20041;-69
2022/06/14 00:20:43;;;;;;;6.65;3.05;;;10.10;99.90;;;;;;5038513;28;20041;-69
2022/06/14 00:23:09;;;;;;;8.90;2.92;;;;;;;;;;5022136;28;20098;-70
2022/06/14 00:25:41;;;;;;;7.32;3.38;;;10.20;99.90;;;;;;5032124;28;20032;-69
2022/06/14 00:28:08;;;;;;;9.98;2.33;;;10.20;99.90;;;;;;5036697;28;20033;-69
2022/06/14 00:30:35;;;;;;;11.38;4.03;;;10.20;99.90;;;;;;5036577;28;20025;-69
2022/06/14 00:33:01;;;;;;;7.80;3.03;;;10.20;99.90;;;;;;5036752;28;20037;-68
2022/06/14 00:35:26;;;;;;;4.72;2.55;;;10.10;99.90;;;;;;5036250;28;20048;-68
2022/06/14 00:37:52;;;;;;;12.85;3.03;;;10.20;99.90;;;;;;5050001;28;20041;-68
2022/06/14 00:40:22;;;;;;;9.38;2.97;;;10.20;99.90;;;;;;5045339;28;20082;-68
2022/06/14 00:42:48;;;;;;;9.63;2.80;;;10.00;99.90;;;;;;5020290;28;20049;-68
2022/06/14 00:45:14;;;;;;;5.80;1.80;;;9.90;99.90;;;;;;5053031;28;20036;-68
2022/06/14 00:47:51;;;;;;;1.95;1.85;;;10.00;99.90;;;;;;5031239;28;20036;-68
2022/06/14 00:50:23;;;;;;;6.57;2.42;;;;;;;;;;5035464;28;20045;-68
2022/06/14 00:52:56;;;;;;;6.65;3.42;;;9.90;99.90;;;;;;5035416;28;20098;-68
2022/06/14 00:55:40;;;;;;;7.05;3.38;;;10.00;99.90;;;;;;5035718;28;20037;-68
2022/06/14 00:58:17;;;;;;;5.20;2.38;;;9.80;99.90;;;;;;5053453;28;20522;-68
2022/06/14 01:00:55;;;;;;;5.22;2.85;;;9.80;99.90;;;;;;5053281;28;20509;-68
2022/06/14 01:03:25;;;;;;;4.95;2.35;;;9.70;99.90;;;;;;5035404;28;20558;-68
2022/06/14 01:06:07;;;;;;;6.25;2.60;;;9.80;99.90;;;;;;5035263;28;20037;-68
2022/06/14 01:09:05;;;;;;;5.90;2.38;;;9.80;99.90;;;;;;5035240;28;20055;-68
2022/06/14 01:11:47;;;;;;;5.20;2.53;;;9.80;99.90;;;;;;5052302;28;20056;-68
2022/06/14 01:14:17;;;;;;;6.00;2.05;;;9.80;99.90;;;;;;5035265;28;20088;-68
2022/06/14 01:16:44;;;;;;;4.85;2.22;;;9.60;99.90;;;;;;5035111;28;20145;-68
2022/06/14 01:19:22;;;;;;;8.70;3.20;;;9.70;99.90;;;;;;5053057;28;20372;-69
2022/06/14 01:22:01;;;;;;;4.55;2.55;;;9.50;99.90;;;;;;5034794;28;20090;-68
2022/06/14 01:24:27;;;;;;;8.00;3.40;;;;;;;;;;5035128;28;20491;-68
2022/06/14 01:26:54;;;;;;;7.03;2.40;;;9.40;99.90;;;;;;5053140;28;20041;-68
2022/06/14 01:29:20;;;;;;;7.05;3.00;;;9.50;99.90;;;;;;5035133;28;20045;-68
2022/06/14 01:31:47;;;;;;;7.82;2.60;;;9.50;99.90;;;;;;5035070;28;20045;-68
2022/06/14 01:34:14;;;;;;;5.85;2.40;;;;;;;;;;5035243;28;20470;-68
2022/06/14 01:36:40;;;;;;;2.78;1.83;;;9.50;99.90;;;;;;5034834;28;20106;-68
2022/06/14 01:39:11;;;;;;;3.22;1.58;;;9.30;99.90;;;;;;5034562;28;20129;-68
2022/06/14 01:42:02;;;;;;;6.60;2.38;;;9.30;99.90;;;;;;5052634;28;20044;-68
2022/06/14 01:45:08;;;;;;;6.72;2.22;;;9.30;99.90;;;;;;5034814;28;20475;-68
2022/06/14 01:47:48;;;;;;;7.90;2.47;;;9.20;99.90;;;;;;5031736;28;20442;-68
2022/06/14 01:53:13;;;;;;;6.03;2.35;;;9.10;99.90;;;;;;5052287;28;20442;-68
2022/06/14 01:56:02;;;;;;;5.30;2.78;;;9.20;99.90;;;;;;5052547;28;20040;-68
2022/06/14 01:59:03;;;;;;;9.07;2.90;;;9.30;99.90;;;;;;5007287;28;20088;-68
2022/06/14 02:01:37;;;;;;;6.68;2.65;;;9.10;99.90;;;;;;5052354;28;20465;-68
2022/06/14 02:04:45;;;;;;;7.72;3.08;;;9.30;99.90;;;;;;5052528;28;20044;-68
2022/06/14 02:07:38;;;;;;;7.50;2.92;;;9.20;99.90;;;;;;5042851;28;20589;-68
2022/06/14 02:10:12;;;;;;;5.15;2.90;;;9.40;99.90;;;;;;5020894;28;20044;-68
2022/06/14 02:12:46;;;;;;;4.77;3.73;;;9.30;99.90;;;;;;5017725;28;20041;-67
2022/06/14 02:15:24;;;;;;;5.38;3.05;;;9.40;99.90;;;;;;5039058;28;20087;-68
2022/06/14 02:18:03;;;;;;;2.22;1.80;;;9.00;99.90;;;;;;5051650;28;20068;-68
2022/06/14 02:20:33;;;;;;;3.95;2.20;;;;;;;;;;5052578;28;20483;-67
2022/06/14 02:23:03;;;;;;;3.67;1.70;;;8.80;99.90;;;;;;5033638;28;20194;-67
2022/06/14 02:25:39;;;;;;;2.58;1.70;;;8.90;99.90;;;;;;5034175;28;20167;-68
2022/06/14 02:28:24;;;;;;;2.80;1.50;;;8.80;99.90;;;;;;5052681;28;20134;-68
2022/06/14 02:30:55;;;;;;;5.07;2.20;;;;;;;;;;5034739;28;20487;-68
2022/06/14 02:33:36;;;;;;;4.97;1.80;;;9.10;99.90;;;;;;5017551;28;20037;-68
2022/06/14 02:36:28;;;;;;;6.28;2.53;;;9.00;99.90;;;;;;5052043;28;20045;-68
2022/06/14 02:39:06;;;;;;;2.88;1.90;;;9.00;99.90;;;;;;5052322;28;20041;-69
2022/06/14 02:41:52;;;;;;;3.25;1.50;;;9.10;99.90;;;;;;5034043;28;20167;-68
2022/06/14 02:44:39;;;;;;;4.35;2.15;;;8.80;99.90;;;;;;5034453;28;20045;-68
2022/06/14 02:47:13;;;;;;;4.50;1.83;;;9.00;99.90;;;;;;5030945;28;20041;-68
2022/06/14 02:49:57;;;;;;;5.80;2.33;;;9.10;99.90;;;;;;5034002;28;20049;-68
2022/06/14 02:52:29;;;;;;;3.45;1.67;;;;;;;;;;5034371;28;20379;-68
2022/06/14 02:55:19;;;;;;;3.33;1.40;;;9.10;99.90;;;;;;5017732;28;20037;-68
2022/06/14 02:57:57;;;;;;;5.28;1.75;;;8.70;99.90;;;;;;5051774;28;20513;-68
2022/06/14 03:00:30;;;;;;;4.55;1.77;;;8.60;99.90;;;;;;5053590;28;20044;-67
2022/06/14 03:03:12;;;;;;;6.28;1.90;;;;;;;;;;5038127;28;20029;-68
2022/06/14 03:05:44;;;;;;;5.28;1.85;;;8.70;99.90;;;;;;5038640;28;20064;-68
2022/06/14 03:08:23;;;;;;;3.30;1.80;;;8.70;99.90;;;;;;5022165;28;20068;-69
2022/06/14 03:11:16;;;;;;;6.85;2.15;;;8.70;99.90;;;;;;5056141;28;20555;-68
2022/06/14 03:14:03;;;;;;;5.03;1.55;;;8.80;99.90;;;;;;5027005;28;20037;-68
2022/06/14 03:16:35;;;;;;;6.35;2.08;;;8.90;99.90;;;;;;5038047;28;20043;-69
2022/06/14 03:19:18;;;;;;;6.22;2.08;;;;;;;;;;5037753;28;20052;-68
2022/06/14 03:21:48;;;;;;;3.83;1.90;;;8.90;99.90;;;;;;5020885;28;20043;-68
2022/06/14 03:24:46;;;;;;;6.57;2.42;;;8.80;99.90;;;;;;5021411;28;20426;-68
2022/06/14 03:27:23;;;;;;;3.10;1.80;;;8.60;99.90;;;;;;5024818;28;20040;-66
2022/06/14 03:29:55;;;;;;;3.20;2.03;;;;;;;;;;5037485;28;20048;-68
2022/06/14 03:32:37;;;;;;;8.07;1.92;;;8.60;99.90;;;;;;5021280;28;20411;-69
2022/06/14 03:35:16;;;;;;;8.75;2.47;;;8.80;99.90;;;;;;5055779;28;20033;-68
2022/06/14 03:37:42;;;;;;;6.43;2.00;;;;;;;;;;5054945;28;20055;-68
2022/06/14 03:40:13;;;;;;;7.18;2.50;;;8.80;99.90;;;;;;5037849;28;20455;-68
2022/06/14 03:42:39;;;;;;;3.17;1.90;;;;;;;;;;5035604;28;20487;-68
2022/06/14 03:45:08;;;;;;;5.72;2.35;;;8.80;99.90;;;;;;5008958;28;20125;-68
2022/06/14 03:47:34;;;;;;;6.88;2.22;;;8.80;99.90;;;;;;5034732;28;20116;-68
2022/06/14 03:50:07;;;;;;;5.65;2.22;;;8.70;99.90;;;;;;5037214;28;20076;-68
2022/06/14 03:52:48;;;;;;;3.90;1.90;;;8.60;99.90;;;;;;5016781;28;20494;-68
2022/06/14 03:55:16;;;;;;;3.75;2.25;;;8.70;99.90;;;;;;5036049;28;20507;-68
2022/06/14 03:57:54;;;;;;;4.00;2.13;;;8.70;99.90;;;;;;5054055;28;20073;-68
2022/06/14 04:00:35;;;;;;;3.55;2.13;;;8.60;99.90;;;;;;5054102;28;20049;-68
2022/06/14 04:03:08;;;;;;;4.75;2.22;;;8.80;99.90;;;;;;5036312;28;20052;-68
2022/06/14 04:05:44;;;;;;;5.88;2.58;;;8.80;99.90;;;;;;5045687;28;20497;-68
2022/06/14 04:08:31;;;;;;;5.38;2.83;;;8.80;99.90;;;;;;5029122;28;20641;-68
2022/06/14 04:11:16;;;;;;;5.55;2.33;;;;;;;;;;5023018;28;20435;-67
2022/06/14 04:13:55;;;;;;;5.38;2.20;;;;;;;;;;5026014;28;20037;-68
2022/06/14 04:16:34;;;;;;;6.88;2.25;;;;;;;;;;5043997;28;20380;-69
2022/06/14 04:19:03;;;;;;;5.55;2.40;;;;;;;;;;5003179;28;20046;-70
2022/06/14 04:21:43;;;;;;;6.05;2.20;;;;;;;;;;4986886;28;20475;-70
2022/06/14 04:24:22;;;;;;;7.88;2.42;;;;;;;;;;4992184;28;20042;-71
2022/06/14 04:26:52;;;;;;;4.80;2.28;;;;;;;;;;4987888;28;20038;-70
2022/06/14 04:29:22;;;;;;;5.85;2.67;;;;;;;;;;4995958;28;20042;-70
2022/06/14 04:31:58;;;;;;;5.30;2.80;;;;;;;;;;4993788;28;20509;-70
2022/06/14 04:34:54;;;;;;;6.32;2.45;;;9.20;99.90;;;;;;4993096;28;20045;-70
2022/06/14 04:37:21;;;;;;;;;;;;;;;;;;5004476;28;20124;-70
2022/06/14 04:39:58;;;;;;;3.53;1.98;;;9.10;99.90;;;;;;5003491;28;20043;-70
2022/06/14 04:42:30;;;;;;;5.15;2.45;;;;;;;;;;5004430;28;20078;-70
2022/06/14 04:45:07;;;;;;;4.53;2.17;;;;;;;;;;5004008;28;20503;-70
2022/06/14 04:47:43;;;;;;;3.63;2.47;;;;;;;;;;5003294;28;20210;-70
2022/06/14 04:50:17;;;;;;;4.25;1.80;;;9.40;99.90;;;;;;5005710;28;20483;-70
2022/06/14 04:53:24;;;;;;;7.72;2.47;;;9.50;99.90;;;;;;5004637;28;20038;-70
2022/06/14 04:55:52;;;;;;;;;;;9.80;99.90;;;;;;4966114;28;20129;-70
2022/06/14 04:58:21;;;;;;;4.03;2.40;;;9.50;99.90;;;;;;4991505;28;19984;-70
2022/06/14 05:00:50;;;;;;;6.13;2.45;;;;;;;;;;5004072;28;20046;-70
2022/06/14 05:03:24;;;;;;;9.07;2.85;;;10.40;99.90;;;;;;5002331;28;20056;-70
2022/06/14 05:06:00;;;;;;;8.63;3.17;;;10.70;99.90;;;;;;5003386;28;20057;-71
2022/06/14 05:08:56;;;;;;;7.07;2.88;;;;;;;;;;5003733;28;20038;-71
2022/06/14 05:11:22;;;;;;;3.60;2.13;;;;;;;;;;4989120;28;20050;-69
2022/06/14 05:14:06;;;;;;;8.85;3.40;;;11.70;99.90;;;;;;4992724;28;20492;-71
2022/06/14 05:16:37;;;;;;;6.60;2.53;;;11.90;99.90;;;;;;5001808;28;20412;-69
2022/06/14 05:19:12;;;;;;;7.82;2.80;;;11.70;99.90;;;;;;5043008;28;20055;-70
2022/06/14 05:21:38;;;;;;;9.38;3.58;;;;;;;;;;5043269;28;20084;-71
2022/06/14 05:24:05;;;;;;;8.13;3.25;;;12.20;99.90;;;;;;5024092;28;20094;-71
2022/06/14 05:26:54;;;;;;;9.75;3.40;;;12.50;99.90;;;;;;5025001;28;20465;-71
2022/06/14 05:29:31;;;;;;;8.20;3.20;;;12.70;99.90;;;;;;5022224;28;20123;-72
2022/06/14 05:32:05;;;;;;;8.05;3.00;;;13.10;99.90;;;;;;5024693;28;20052;-71
2022/06/14 05:34:37;;;;;;;10.40;3.60;;;13.50;99.90;;;;;;5004780;28;20130;-71
2022/06/14 05:37:08;;;;;;;6.47;2.58;;;14.10;99.90;;;;;;5003743;28;20048;-71
2022/06/14 05:39:52;;;;;;;11.27;2.63;;;14.10;99.90;;;;;;5024983;28;20049;-72
2022/06/14 05:42:21;;;;;;;7.90;2.85;;;14.50;99.90;;;;;;5024748;28;20419;-71
2022/06/14 05:44:52;;;;;;;8.13;2.85;;;14.60;99.90;;;;;;5023850;28;20119;-71
2022/06/14 05:47:26;;;;;;;6.00;2.53;;;14.90;99.90;;;;;;5030221;28;20053;-70
2022/06/14 05:50:00;;;;;;;5.57;2.30;;;14.80;99.90;;;;;;5025170;28;20107;-70
2022/06/14 05:52:33;;;;;;;9.93;2.47;;;14.50;99.90;;;;;;5024840;28;20063;-70
2022/06/14 05:55:14;;;;;;;7.85;3.40;;;14.80;99.90;;;;;;5026443;28;20059;-71
2022/06/14 05:57:49;;;;;;;7.00;2.50;;;14.90;99.90;;;;;;5044569;28;20049;-71
2022/06/14 06:00:17;;;;;;;;;;;14.70;99.90;;;;;;5025979;28;20361;-71
2022/06/14 06:02:51;;;;;;;5.32;2.03;;;15.00;99.90;;;;;;5026101;28;19944;-71
2022/06/14 06:05:41;;;;;;;9.80;2.50;;;15.20;99.90;;;;;;5044473;28;20041;-71
2022/06/14 06:08:19;;;;;;;7.28;1.85;;;15.30;99.90;;;;;;5025547;28;20091;-71
2022/06/14 06:10:49;;;;;;;9.65;3.03;;;15.80;99.90;;;;;;5036536;28;20087;-71
2022/06/14 06:13:22;;;;;;;7.10;2.50;;;15.60;99.90;;;;;;5011473;28;20067;-70
2022/06/14 06:15:53;;;;;;;5.63;2.63;;;15.70;99.90;;;;;;5022183;28;20052;-71
2022/06/14 06:18:38;;;;;;;10.85;2.70;;;15.70;99.90;;;;;;5026486;28;20515;-71
2022/06/14 06:21:13;;;;;;;12.63;2.80;;;15.70;99.90;;;;;;5021465;28;20046;-71
2022/06/14 06:23:51;;;;;;;9.88;2.40;;;15.70;99.90;;;;;;5038759;28;20038;-70
2022/06/14 06:26:20;;;;;;;5.75;1.95;;;15.90;99.90;;;;;;5031943;28;20037;-70
2022/06/14 06:28:54;;;;;;;6.45;2.40;;;16.20;99.90;;;;;;5031899;28;20041;-71
2022/06/14 06:31:35;;;;;;;9.48;2.83;;;16.10;99.90;;;;;;5030698;28;20525;-70
2022/06/14 06:34:03;;;;;;;12.88;4.22;;;16.40;99.90;;;;;;5028530;28;20087;-70
2022/06/14 06:36:52;;;;;;;6.50;2.20;;;16.20;99.90;;;;;;5035386;28;20054;-70
2022/06/14 06:39:30;;;;;;;7.68;2.80;;;16.30;99.90;;;;;;5034648;28;20509;-70
2022/06/14 06:42:04;;;;;;;8.60;3.20;;;16.40;99.90;;;;;;5034265;28;20400;-70
2022/06/14 06:44:33;;;;;;;7.50;2.80;;;16.20;99.90;;;;;;5034530;28;20044;-70
2022/06/14 06:47:19;;;;;;;7.72;2.60;;;15.90;99.90;;;;;;5034308;28;20041;-70
2022/06/14 06:49:58;;;;;;;5.45;2.45;;;16.00;99.90;;;;;;5022200;28;20052;-70
2022/06/14 06:52:35;;;;;;;8.40;2.90;;;15.90;99.90;;;;;;5034543;28;20037;-70
2022/06/14 06:55:09;;;;;;;8.40;2.95;;;15.90;99.90;;;;;;5034729;28;20049;-70
2022/06/14 06:57:37;;;;;;;10.48;2.83;;;15.70;99.90;;;;;;5034074;28;20052;-70
2022/06/14 07:00:04;;;;;;;5.97;2.00;;;15.70;99.90;;;;;;5035418;28;20077;-70
2022/06/14 07:02:46;;;;;;;7.40;2.88;;;15.70;99.90;;;;;;5034206;28;20443;-71
2022/06/14 07:05:16;;;;;;;9.30;2.58;;;15.60;99.90;;;;;;5035349;28;20041;-71
2022/06/14 07:08:03;;;;;;;8.52;2.47;;;15.50;99.90;;;;;;5034162;28;20045;-71
2022/06/14 07:10:46;;;;;;;7.18;2.15;;;15.70;99.90;;;;;;5033463;28;20133;-71
2022/06/14 07:13:30;;;;;;;5.95;2.42;;;15.80;99.90;;;;;;5033943;28;20095;-70
2022/06/14 07:16:16;;;;;;;9.23;2.28;;;15.60;99.90;;;;;;5033983;28;20491;-71
2022/06/14 07:18:48;;;;;;;5.32;1.35;;;15.80;99.90;;;;;;5047769;28;20467;-71
2022/06/14 07:21:19;;;;;;;3.58;1.10;;;15.90;99.90;;;;;;5054904;28;20041;-71
2022/06/14 07:24:08;;;;;;;8.00;2.15;;;16.00;99.90;;;;;;5034207;28;20158;-71
2022/06/14 07:26:43;;;;;;;6.18;2.35;;;16.10;99.90;;;;;;5036417;28;20043;-70
2022/06/14 07:29:14;;;;;;;;;;;16.10;99.90;;;;;;5054875;28;20052;-71
2022/06/14 07:31:51;;;;;;;4.55;1.67;;;16.10;99.90;;;;;;5036371;28;19917;-71
2022/06/14 07:34:17;;;;;;;6.18;1.40;;;16.20;99.90;;;;;;5035243;28;20102;-71
2022/06/14 07:36:49;;;;;;;2.55;1.20;;;16.10;99.90;;;;;;5035871;28;20049;-71
2022/06/14 07:39:44;;;;;;;6.88;1.73;;;16.10;99.90;;;;;;5035807;28;20038;-72
2022/06/14 07:42:20;;;;;;;4.95;1.67;;;16.40;99.90;;;;;;5036997;28;20034;-71
2022/06/14 07:45:03;;;;;;;7.80;1.52;;;16.50;99.90;;;;;;5034419;28;20038;-71
2022/06/14 07:47:45;;;;;;;9.30;2.03;;;16.40;99.90;;;;;;5020809;28;20498;-71
2022/06/14 07:50:28;;;;;;;5.40;2.08;;;16.50;99.90;;;;;;5020477;28;20048;-71
2022/06/14 07:53:17;;;;;;;4.53;1.90;;;16.60;99.90;;;;;;5017928;28;20038;-71
2022/06/14 07:55:49;;;;;;;7.53;2.03;;;16.60;99.90;;;;;;5037468;28;20047;-71
2022/06/14 07:58:30;;;;;;;6.55;2.05;;;16.70;99.90;;;;;;5036445;28;20521;-71
2022/06/14 08:01:09;;;;;;;4.78;1.70;;;16.80;99.90;;;;;;5054141;28;20568;-71
2022/06/14 08:03:48;;;;;;;3.47;1.48;;;16.70;99.90;;;;;;5025543;28;20048;-71
2022/06/14 08:06:22;;;;;;;8.75;1.65;;;16.90;99.90;;;;;;5036156;28;20046;-71
2022/06/14 08:08:56;;;;;;;9.07;1.77;;;16.70;99.90;;;;;;5036288;28;20076;-71
2022/06/14 08:11:30;;;;;;;6.70;1.50;;;16.60;99.90;;;;;;5053316;28;20041;-71
2022/06/14 08:14:08;;;;;;;3.90;1.73;;;16.50;99.90;;;;;;5035814;28;20040;-72
2022/06/14 08:16:35;;;;;;;5.18;1.75;;;16.50;99.90;;;;;;5035185;28;20083;-71
2022/06/14 08:19:06;;;;;;;5.18;1.88;;;16.60;99.90;;;;;;5028177;28;20091;-71
2022/06/14 08:21:57;;;;;;;3.00;1.23;;;16.70;99.90;;;;;;5053918;28;20120;-71
2022/06/14 08:24:29;;;;;;;6.78;1.83;;;16.70;99.90;;;;;;5035906;28;20041;-71
2022/06/14 08:27:15;;;;;;;6.13;1.55;;;16.80;99.90;;;;;;5053559;28;20095;-70
2022/06/14 08:30:08;;;;;;;4.32;0.95;;;17.10;99.90;;;;;;5035321;28;20122;-70
2022/06/14 08:32:42;;;;;;;2.47;0.85;;;17.00;99.90;;;;;;5051490;28;20049;-69
2022/06/14 08:35:35;;;;;;;8.25;1.40;;;17.20;99.90;;;;;;5035477;28;20047;-69
2022/06/14 08:38:04;;;;;;;5.57;1.23;;;17.10;99.90;;;;;;5021514;28;20570;-69
2022/06/14 08:40:49;;;;;;;6.40;1.42;;;17.00;99.90;;;;;;5052884;28;20487;-69
2022/06/14 08:43:22;;;;;;;4.50;1.60;;;17.30;99.90;;;;;;5051698;28;20041;-69
2022/06/14 08:46:50;;;;;;;4.03;1.35;;;17.50;99.90;;;;;;5039464;28;21213;-69
2022/06/14 08:49:37;;;;;;;4.07;1.10;;;17.30;99.90;;;;;;4959461;28;20046;-69
2022/06/14 08:52:30;;;;;;;3.88;1.70;;;17.10;99.90;;;;;;4960820;28;20515;-70
2022/06/14 08:55:18;;;;;;;4.80;1.30;;;17.20;99.90;;;;;;5011526;28;20128;-69
2022/06/14 08:58:26;;;;;;;4.25;1.48;;;17.20;99.90;;;;;;5034749;28;20052;-69
2022/06/14 09:01:16;;;;;;;3.95;0.93;;;17.20;99.90;;;;;;5034742;28;20049;-70
2022/06/14 09:03:54;;;;;;;2.92;1.02;;;17.40;99.90;;;;;;5033583;28;20040;-69
2022/06/14 09:06:26;;;;;;;2.95;0.98;;;17.70;99.90;;;;;;5018190;28;20131;-70
2022/06/14 09:09:19;;;;;;;4.80;1.38;;;17.50;99.90;;;;;;5034742;28;20131;-69
2022/06/14 09:12:07;;;;;;;3.08;1.00;;;17.60;99.90;;;;;;5029728;28;20195;-69
2022/06/14 09:14:46;;;;;;;4.35;1.00;;;17.80;99.90;;;;;;5035078;28;20075;-70
2022/06/14 09:17:46;;;;;;;5.93;1.25;;;17.60;99.90;;;;;;5024258;28;20080;-69
2022/06/14 09:20:43;;;;;;;3.10;1.05;;;17.90;99.90;;;;;;5034820;28;20101;-69
2022/06/14 09:23:27;;;;;;;3.80;1.25;;;17.80;99.90;;;;;;5034846;28;20045;-69
2022/06/14 09:26:30;;;;;;;8.60;3.45;;;18.00;99.90;;;;;;5025659;28;20090;-69
2022/06/14 09:29:23;;;;;;;3.92;1.25;;;18.00;99.90;;;;;;5033927;28;20140;-70
2022/06/14 09:31:48;;;;;;;3.75;0.65;;;18.10;99.90;;;;;;5034760;28;20056;-70
2022/06/14 09:34:36;;;;;;;3.70;1.00;;;18.10;99.90;;;;;;5052560;28;20561;-70
2022/06/14 09:37:20;;;;;;;5.82;1.23;;;18.40;99.90;;;;;;5034446;28;20051;-70
2022/06/14 09:40:12;;;;;;;2.05;0.80;;;18.50;99.90;;;;;;5052897;28;20126;-70
2022/06/14 09:42:57;;;;;;;5.50;1.10;;;18.80;99.90;;;;;;5034561;28;20048;-70
2022/06/14 09:45:41;;;;;;;3.65;1.35;;;18.90;99.90;;;;;;5048760;28;20037;-70
2022/06/14 09:48:30;;;;;;;2.33;1.02;;;18.80;99.90;;;;;;5022346;28;20556;-70
2022/06/14 09:51:22;;;;;;;1.70;0.93;;;18.70;99.90;;;;;;5049095;28;20053;-69
2022/06/14 09:53:53;;;;;;;2.63;0.88;;;18.80;99.90;;;;;;5052341;28;20033;-69
2022/06/14 09:56:39;;;;;;;2.60;0.80;;;18.70;99.90;;;;;;5017991;28;20040;-70
2022/06/14 09:59:23;;;;;;;3.53;0.90;;;18.80;99.90;;;;;;5017823;28;20037;-69
2022/06/14 10:02:16;;;;;;;2.58;0.88;;;18.90;99.90;;;;;;5028034;28;20132;-69
2022/06/14 10:04:56;;;;;;;4.50;0.80;;;18.90;99.90;;;;;;5032525;28;20032;-70
2022/06/14 10:08:15;;;;;;;3.20;0.70;;;18.80;99.90;;;;;;5033982;28;20037;-70
2022/06/14 10:11:21;;;;;;;4.15;1.08;;;18.80;99.90;;;;;;4946543;28;20465;-70
2022/06/14 10:14:11;;;;;;;3.72;0.73;;;18.90;99.90;;;;;;5001811;28;20057;-70
2022/06/14 10:16:47;;;;;;;4.55;0.93;;;18.90;99.90;;;;;;5033831;28;20047;-70
2022/06/14 10:19:40;;;;;;;2.88;1.00;;;19.10;99.90;;;;;;5034101;28;20102;-70
2022/06/14 10:22:48;;;;;;;3.78;0.70;;;18.80;99.90;;;;;;5026564;28;20041;-69
2022/06/14 10:28:52;;;;;;;2.83;1.08;;;18.90;99.90;;;;;;5032261;28;20041;-71
2022/06/14 10:31:54;;;;;;;4.47;0.70;;;18.70;99.90;;;;;;5034168;28;20048;-70
2022/06/14 10:34:41;;;;;;;2.60;1.05;;;19.00;99.90;;;;;;4978361;28;20404;-71
2022/06/14 10:37:20;;;;;;;3.10;0.73;;;18.80;99.90;;;;;;5046822;28;20498;-71
2022/06/14 10:39:58;;;;;;;5.30;1.13;;;19.70;99.90;;;;;;5051729;28;20048;-71
2022/06/14 10:42:34;;;;;;;2.92;0.90;;;18.70;99.90;;;;;;5051833;28;20033;-70
2022/06/14 10:45:05;;;;;;;4.88;1.35;;;18.80;99.90;;;;;;5016832;28;20056;-70
2022/06/14 10:47:57;;;;;;;5.70;1.30;;;18.80;99.90;;;;;;5030740;28;20041;-70
2022/06/14 10:50:34;;;;;;;4.15;1.40;;;19.10;99.90;;;;;;5033719;28;20056;-71
2022/06/14 10:53:18;;;;;;;2.33;0.90;;;19.40;99.90;;;;;;5051624;28;20041;-71
2022/06/14 10:56:14;;;;;;;3.53;1.02;;;19.20;99.90;;;;;;5034004;28;20053;-71
2022/06/14 10:58:53;;;;;;;3.67;0.98;;;19.30;99.90;;;;;;5033645;28;20041;-72
2022/06/14 11:01:59;;;;;;;2.83;1.42;;;19.40;99.90;;;;;;5033561;28;20075;-71
2022/06/14 11:04:36;;;;;;;4.60;1.60;;;19.40;99.90;;;;;;5047851;28;20036;-71
2022/06/14 11:07:25;;;;;;;3.17;1.00;;;19.40;99.90;;;;;;5049348;28;20465;-71
2022/06/14 11:10:15;;;;;;;2.50;0.77;;;19.40;99.90;;;;;;5048311;28;20076;-71
2022/06/14 11:13:08;;;;;;;2.28;0.70;;;19.40;99.90;;;;;;5011028;28;20581;-71
2022/06/14 11:15:59;;;;;;;2.95;0.88;;;19.40;99.90;;;;;;5028485;28;20388;-71
2022/06/14 11:18:45;;;;;;;6.70;0.98;;;19.40;99.90;;;;;;5010315;28;20535;-71
2022/06/14 11:21:40;;;;;;;3.58;0.98;;;19.40;99.90;;;;;;5028122;28;20034;-71
2022/06/14 11:24:35;;;;;;;5.65;1.25;;;19.10;99.90;;;;;;5013857;28;20045;-72
2022/06/14 11:27:27;;;;;;;2.67;0.70;;;19.10;99.90;;;;;;5013677;28;20172;-71
2022/06/14 11:30:18;;;;;;;4.55;1.33;;;19.30;99.90;;;;;;5037245;28;20049;-71
2022/06/14 11:33:45;;;;;;;2.13;0.95;;;19.20;99.90;;;;;;5028971;28;20037;-71
2022/06/14 11:36:35;;;;;;;2.83;1.08;;;19.20;99.90;;;;;;4946227;28;20059;-71
2022/06/14 11:39:12;;;;;;;3.80;0.80;;;19.40;99.90;;;;;;4938831;28;20437;-71
2022/06/14 11:41:45;;;;;;;2.33;0.63;;;19.20;99.90;;;;;;5006430;28;20041;-71
2022/06/14 11:44:46;;;;;;;3.33;0.73;;;19.80;99.90;;;;;;5035460;28;20107;-71
2022/06/14 11:47:33;;;;;;;2.25;0.75;;;19.40;99.90;;;;;;5015642;28;20381;-71
2022/06/14 11:50:37;;;;;;;3.65;0.88;;;19.40;99.90;;;;;;5018863;28;20495;-71
2022/06/14 11:53:30;;;;;;;2.17;0.70;;;19.40;99.90;;;;;;5019233;28;20088;-71
2022/06/14 11:56:07;;;;;;;5.95;0.88;;;19.20;99.90;;;;;;5050763;28;20064;-71
2022/06/14 11:59:13;;;;;;;3.22;0.70;;;20.80;99.90;;;;;;5032579;28;20037;-71
2022/06/14 12:01:53;;;;;;;3.75;0.95;;;19.00;99.90;;;;;;5045153;28;20049;-71
2022/06/14 12:04:37;;;;;;;3.10;0.68;;;19.30;99.90;;;;;;5031433;28;20499;-71
2022/06/14 12:07:28;;;;;;;3.78;0.70;;;19.10;99.90;;;;;;5048484;28;20037;-71
2022/06/14 12:10:25;;;;;;;1.48;0.80;;;19.60;99.90;;;;;;5032452;28;20041;-71
2022/06/14 12:13:12;;;;;;;2.83;0.93;;;19.80;99.90;;;;;;5049966;28;20041;-71
2022/06/14 12:16:06;;;;;;;2.75;0.90;;;19.80;99.90;;;;;;5030115;28;20053;-71
2022/06/14 12:18:37;;;;;;;3.47;0.80;;;19.70;99.90;;;;;;5018423;28;20057;-72
2022/06/14 12:21:24;;;;;;;2.20;0.65;;;19.80;99.90;;;;;;5032288;28;20506;-71
2022/06/14 12:24:06;;;;;;;2.03;0.70;;;20.00;99.90;;;;;;5048956;28;20045;-71
2022/06/14 12:26:59;;;;;;;3.53;0.70;;;19.70;99.90;;;;;;5031759;28;20056;-71
2022/06/14 12:29:37;;;;;;;2.08;0.75;;;19.60;99.90;;;;;;5050163;28;20045;-71
2022/06/14 12:32:18;;;;;;;3.05;0.90;;;19.70;99.90;;;;;;5032084;28;20040;-71
2022/06/14 12:34:48;;;;;;;4.25;0.95;;;19.70;99.90;;;;;;5030134;28;20132;-71
2022/06/14 12:37:39;;;;;;;2.45;0.80;;;19.60;99.90;;;;;;5031552;28;20059;-71
2022/06/14 12:40:13;;;;;;;5.65;1.25;;;19.60;99.90;;;;;;5049899;28;20048;-71
2022/06/14 12:43:16;;;;;;;6.32;1.20;;;19.60;99.90;;;;;;5049957;28;20037;-71
2022/06/14 12:45:48;;;;;;;2.60;0.90;;;19.40;99.90;;;;;;5051645;28;20039;-71
2022/06/14 12:48:55;;;;;;;3.45;0.82;;;21.10;99.90;;;;;;5034621;28;20068;-71
2022/06/14 12:51:33;;;;;;;8.00;1.08;;;19.60;99.90;;;;;;4928142;28;20074;-71
2022/06/14 12:54:07;;;;;;;3.60;1.25;;;19.60;99.90;;;;;;4951991;28;20050;-70
2022/06/14 12:56:51;;;;;;;2.13;0.73;;;19.60;99.90;;;;;;4999565;28;20053;-70
2022/06/14 12:59:42;;;;;;;3.03;0.93;;;19.40;99.90;;;;;;5031200;28;20407;-70
2022/06/14 13:02:15;;;;;;;3.22;0.98;;;19.40;99.90;;;;;;5030503;28;20295;-70
2022/06/14 13:05:05;;;;;;;5.85;1.40;;;19.70;99.90;;;;;;5014002;28;20051;-70
2022/06/14 13:07:41;;;;;;;2.88;0.93;;;19.80;99.90;;;;;;5030186;28;20086;-69
2022/06/14 13:10:39;;;;;;;2.97;0.95;;;19.50;99.90;;;;;;5026372;28;20120;-70
2022/06/14 13:13:29;;;;;;;2.13;0.57;;;19.60;99.90;;;;;;5016860;28;20051;-70
2022/06/14 13:16:09;;;;;;;5.47;1.00;;;19.60;99.90;;;;;;5039109;28;20130;-67
2022/06/14 13:18:57;;;;;;;2.28;1.10;;;19.70;99.90;;;;;;5039862;28;20573;-70
2022/06/14 13:21:49;;;;;;;4.53;0.98;;;20.80;99.90;;;;;;5041369;28;20041;-70
2022/06/14 13:24:36;;;;;;;4.55;1.10;;;20.60;99.90;;;;;;5022193;28;20137;-72
2022/06/14 13:27:15;;;;;;;2.30;0.70;;;19.90;99.90;;;;;;5037436;28;20389;-72
2022/06/14 13:30:14;;;;;;;4.10;1.20;;;19.90;99.90;;;;;;5023889;28;20551;-73
2022/06/14 13:33:07;;;;;;;2.28;0.85;;;20.20;99.90;;;;;;5024037;28;20151;-71
2022/06/14 13:35:52;;;;;;;2.13;0.95;;;20.10;99.90;;;;;;5041881;28;20527;-72
2022/06/14 13:38:55;;;;;;;1.55;0.68;;;20.10;99.90;;;;;;5024197;28;20087;-72
2022/06/14 13:41:38;;;;;;;2.75;1.00;;;20.00;99.90;;;;;;5029641;28;20530;-72
2022/06/14 13:44:16;;;;;;;3.92;1.05;;;20.10;99.90;;;;;;5023975;28;20439;-71
2022/06/14 13:46:53;;;;;;;1.75;0.60;;;19.80;99.90;;;;;;5023929;28;20080;-70
2022/06/14 13:49:32;;;;;;;2.97;1.02;;;20.00;99.90;;;;;;5041542;28;20080;-71
2022/06/14 13:52:07;;;;;;;2.88;1.00;;;20.00;99.90;;;;;;5024260;28;20406;-71
2022/06/14 13:54:52;;;;;;;5.95;1.73;;;21.50;99.90;;;;;;5024039;28;20132;-71
2022/06/14 13:57:55;;;;;;;2.90;1.00;;;20.00;99.90;;;;;;5041835;28;20040;-71
2022/06/14 14:00:24;;;;;;;2.00;0.90;;;20.30;99.90;;;;;;5036852;28;20410;-71
2022/06/14 14:03:17;;;;;;;4.60;1.30;;;20.10;99.90;;;;;;5045873;28;20777;-70
2022/06/14 14:06:20;;;;;;;3.33;1.15;;;20.20;99.90;;;;;;5028780;28;20049;-71
2022/06/14 14:09:16;;;;;;;4.88;1.08;;;20.30;99.90;;;;;;5035725;28;20036;-70
2022/06/14 14:11:47;;;;;;;5.57;0.82;;;20.30;99.90;;;;;;5027978;28;20072;-71
2022/06/14 14:14:19;;;;;;;3.03;1.00;;;20.20;99.90;;;;;;5028106;28;20060;-70
2022/06/14 14:17:08;;;;;;;2.67;1.17;;;20.10;99.90;;;;;;5025759;28;20110;-70